sensor_id;sensor_type;location;lat;lon;timestamp;P1;durP1;ratioP1;P2;durP2;ratioP2
3979;SDS011;2004;52.452;13.120;2023-03-14T00:04:57;5.70;;;1.23;;
3979;SDS011;2004;52.452;13.120;2023-03-14T00:12:47;4.83;;;1.20;;
3979;SDS011;2004;52.452;13.120;2023-03-14T00:20:38;1.60;;;0.93;;
3979;SDS011;2004;52.452;13.120;2023-03-14T00:28:28;2.57;;;1.10;;
3979;SDS011;2004;52.452;13.120;2023-03-14T00:36:19;1.33;;;0.90;;
3979;SDS011;2004;52.452;13.120;2023-03-14T00:44:10;2.50;;;1.07;;
3979;SDS011;2004;52.452;13.120;2023-03-14T00:52:02;5.70;;;1.37;;
3979;SDS011;2004;52.452;13.120;2023-03-14T00:59:52;0.90;;;0.90;;
3979;SDS011;2004;52.452;13.120;2023-03-14T01:07:43;1.23;;;1.00;;
3979;SDS011;2004;52.452;13.120;2023-03-14T01:15:34;2.20;;;1.10;;
3979;SDS011;2004;52.452;13.120;2023-03-14T01:23:25;0.87;;;0.87;;
3979;SDS011;2004;52.452;13.120;2023-03-14T01:31:15;1.43;;;1.07;;
3979;SDS011;2004;52.452;13.120;2023-03-14T01:39:07;2.20;;;0.93;;
3979;SDS011;2004;52.452;13.120;2023-03-14T01:46:58;3.93;;;1.20;;
3979;SDS011;2004;52.452;13.120;2023-03-14T01:55:09;1.03;;;1.00;;
3979;SDS011;2004;52.452;13.120;2023-03-14T02:10:49;2.43;;;1.00;;
3979;SDS011;2004;52.452;13.120;2023-03-14T02:18:40;4.07;;;1.33;;
3979;SDS011;2004;52.452;13.120;2023-03-14T02:26:38;0.90;;;0.80;;
3979;SDS011;2004;52.452;13.120;2023-03-14T02:34:52;1.17;;;1.07;;
3979;SDS011;2004;52.452;13.120;2023-03-14T02:42:45;0.90;;;0.90;;
3979;SDS011;2004;52.452;13.120;2023-03-14T02:50:35;1.43;;;0.87;;
3979;SDS011;2004;52.452;13.120;2023-03-14T02:58:26;1.80;;;0.80;;
3979;SDS011;2004;52.452;13.120;2023-03-14T03:06:17;2.17;;;1.73;;
3979;SDS011;2004;52.452;13.120;2023-03-14T03:14:08;1.17;;;1.17;;
3979;SDS011;2004;52.452;13.120;2023-03-14T03:21:58;1.03;;;0.87;;
3979;SDS011;2004;52.452;13.120;2023-03-14T03:29:49;1.10;;;1.00;;
3979;SDS011;2004;52.452;13.120;2023-03-14T03:37:39;1.20;;;1.10;;
3979;SDS011;2004;52.452;13.120;2023-03-14T03:45:30;3.70;;;0.80;;
3979;SDS011;2004;52.452;13.120;2023-03-14T03:53:20;1.70;;;1.10;;
3979;SDS011;2004;52.452;13.120;2023-03-14T04:01:11;1.13;;;0.80;;
3979;SDS011;2004;52.452;13.120;2023-03-14T04:09:02;2.00;;;0.80;;
3979;SDS011;2004;52.452;13.120;2023-03-14T04:16:52;2.00;;;0.90;;
3979;SDS011;2004;52.452;13.120;2023-03-14T04:24:43;4.00;;;1.13;;
3979;SDS011;2004;52.452;13.120;2023-03-14T04:32:33;0.80;;;0.80;;
3979;SDS011;2004;52.452;13.120;2023-03-14T04:40:24;0.77;;;0.77;;
3979;SDS011;2004;52.452;13.120;2023-03-14T04:48:15;1.60;;;0.97;;
3979;SDS011;2004;52.452;13.120;2023-03-14T04:56:05;0.70;;;0.70;;
3979;SDS011;2004;52.452;13.120;2023-03-14T05:03:56;2.50;;;0.97;;
3979;SDS011;2004;52.452;13.120;2023-03-14T05:11:49;1.30;;;1.20;;
3979;SDS011;2004;52.452;13.120;2023-03-14T05:19:40;7.13;;;0.87;;
3979;SDS011;2004;52.452;13.120;2023-03-14T05:27:31;3.47;;;0.73;;
3979;SDS011;2004;52.452;13.120;2023-03-14T05:35:21;1.40;;;0.90;;
3979;SDS011;2004;52.452;13.120;2023-03-14T05:43:12;1.53;;;0.90;;
3979;SDS011;2004;52.452;13.120;2023-03-14T05:51:06;1.27;;;0.80;;
3979;SDS011;2004;52.452;13.120;2023-03-14T05:58:56;2.90;;;0.97;;
3979;SDS011;2004;52.452;13.120;2023-03-14T06:06:47;1.30;;;0.90;;
3979;SDS011;2004;52.452;13.120;2023-03-14T06:14:37;1.10;;;0.90;;
3979;SDS011;2004;52.452;13.120;2023-03-14T06:22:28;1.33;;;0.93;;
3979;SDS011;2004;52.452;13.120;2023-03-14T06:30:18;6.50;;;1.70;;
3979;SDS011;2004;52.452;13.120;2023-03-14T06:38:09;3.80;;;1.03;;
3979;SDS011;2004;52.452;13.120;2023-03-14T06:46:00;3.60;;;1.23;;
3979;SDS011;2004;52.452;13.120;2023-03-14T06:53:51;6.53;;;1.17;;
3979;SDS011;2004;52.452;13.120;2023-03-14T07:01:41;9.13;;;2.20;;
3979;SDS011;2004;52.452;13.120;2023-03-14T07:09:32;2.27;;;1.20;;
3979;SDS011;2004;52.452;13.120;2023-03-14T07:17:23;9.13;;;1.60;;
3979;SDS011;2004;52.452;13.120;2023-03-14T07:25:14;3.80;;;1.17;;
3979;SDS011;2004;52.452;13.120;2023-03-14T07:33:05;10.10;;;1.07;;
3979;SDS011;2004;52.452;13.120;2023-03-14T07:40:59;5.93;;;1.00;;
3979;SDS011;2004;52.452;13.120;2023-03-14T07:48:54;7.37;;;1.40;;
3979;SDS011;2004;52.452;13.120;2023-03-14T07:56:44;5.03;;;1.23;;
3979;SDS011;2004;52.452;13.120;2023-03-14T08:04:35;6.23;;;1.63;;
3979;SDS011;2004;52.452;13.120;2023-03-14T08:12:25;6.37;;;1.33;;
3979;SDS011;2004;52.452;13.120;2023-03-14T08:20:16;2.23;;;1.20;;
3979;SDS011;2004;52.452;13.120;2023-03-14T08:28:09;4.93;;;1.80;;
3979;SDS011;2004;52.452;13.120;2023-03-14T08:36:00;3.90;;;1.30;;
3979;SDS011;2004;52.452;13.120;2023-03-14T08:43:51;4.37;;;1.87;;
3979;SDS011;2004;52.452;13.120;2023-03-14T08:51:41;6.60;;;1.10;;
3979;SDS011;2004;52.452;13.120;2023-03-14T08:59:32;2.67;;;1.33;;
3979;SDS011;2004;52.452;13.120;2023-03-14T09:07:22;3.40;;;0.80;;
3979;SDS011;2004;52.452;13.120;2023-03-14T09:15:12;2.70;;;1.10;;
3979;SDS011;2004;52.452;13.120;2023-03-14T09:23:03;6.17;;;1.50;;
3979;SDS011;2004;52.452;13.120;2023-03-14T09:30:53;4.23;;;1.40;;
3979;SDS011;2004;52.452;13.120;2023-03-14T09:38:44;5.53;;;1.50;;
3979;SDS011;2004;52.452;13.120;2023-03-14T09:46:35;7.30;;;1.47;;
3979;SDS011;2004;52.452;13.120;2023-03-14T09:54:32;3.23;;;1.20;;
3979;SDS011;2004;52.452;13.120;2023-03-14T10:02:33;5.43;;;1.27;;
3979;SDS011;2004;52.452;13.120;2023-03-14T10:10:25;2.93;;;0.90;;
3979;SDS011;2004;52.452;13.120;2023-03-14T10:18:16;2.30;;;0.80;;
3979;SDS011;2004;52.452;13.120;2023-03-14T10:26:17;4.97;;;1.03;;
3979;SDS011;2004;52.452;13.120;2023-03-14T10:34:21;5.57;;;1.50;;
3979;SDS011;2004;52.452;13.120;2023-03-14T10:42:20;3.87;;;0.97;;
3979;SDS011;2004;52.452;13.120;2023-03-14T10:50:24;2.87;;;1.00;;
3979;SDS011;2004;52.452;13.120;2023-03-14T10:58:21;3.53;;;1.00;;
3979;SDS011;2004;52.452;13.120;2023-03-14T11:14:38;1.80;;;0.70;;
3979;SDS011;2004;52.452;13.120;2023-03-14T11:22:51;3.70;;;1.13;;
3979;SDS011;2004;52.452;13.120;2023-03-14T11:38:58;3.37;;;1.00;;
3979;SDS011;2004;52.452;13.120;2023-03-14T11:46:54;2.30;;;0.70;;
3979;SDS011;2004;52.452;13.120;2023-03-14T11:54:52;3.53;;;0.80;;
3979;SDS011;2004;52.452;13.120;2023-03-14T12:02:56;6.20;;;0.90;;
3979;SDS011;2004;52.452;13.120;2023-03-14T12:11:14;2.77;;;1.00;;
3979;SDS011;2004;52.452;13.120;2023-03-14T12:27:12;1.90;;;0.90;;
3979;SDS011;2004;52.452;13.120;2023-03-14T12:35:34;2.47;;;0.70;;
3979;SDS011;2004;52.452;13.120;2023-03-14T12:43:30;2.60;;;1.03;;
3979;SDS011;2004;52.452;13.120;2023-03-14T12:51:34;2.20;;;1.07;;
3979;SDS011;2004;52.452;13.120;2023-03-14T12:59:30;2.70;;;0.77;;
3979;SDS011;2004;52.452;13.120;2023-03-14T13:07:30;2.30;;;0.73;;
3979;SDS011;2004;52.452;13.120;2023-03-14T13:15:41;2.50;;;0.77;;
3979;SDS011;2004;52.452;13.120;2023-03-14T13:23:33;1.27;;;0.70;;
3979;SDS011;2004;52.452;13.120;2023-03-14T13:31:26;0.60;;;0.60;;
3979;SDS011;2004;52.452;13.120;2023-03-14T13:39:17;0.77;;;0.77;;
3979;SDS011;2004;52.452;13.120;2023-03-14T13:47:15;1.10;;;0.80;;
3979;SDS011;2004;52.452;13.120;2023-03-14T13:55:14;0.60;;;0.60;;
3979;SDS011;2004;52.452;13.120;2023-03-14T14:03:08;1.10;;;0.90;;
3979;SDS011;2004;52.452;13.120;2023-03-14T14:11:01;0.70;;;0.57;;
3979;SDS011;2004;52.452;13.120;2023-03-14T14:18:54;0.70;;;0.50;;
3979;SDS011;2004;52.452;13.120;2023-03-14T14:26:47;1.63;;;0.80;;
3979;SDS011;2004;52.452;13.120;2023-03-14T14:34:45;1.63;;;0.60;;
3979;SDS011;2004;52.452;13.120;2023-03-14T14:42:45;0.80;;;0.70;;
3979;SDS011;2004;52.452;13.120;2023-03-14T14:58:47;0.70;;;0.60;;
3979;SDS011;2004;52.452;13.120;2023-03-14T15:06:38;10.80;;;1.00;;
3979;SDS011;2004;52.452;13.120;2023-03-14T15:14:29;0.60;;;0.60;;
3979;SDS011;2004;52.452;13.120;2023-03-14T15:22:19;1.60;;;0.50;;
3979;SDS011;2004;52.452;13.120;2023-03-14T15:30:11;0.73;;;0.60;;
3979;SDS011;2004;52.452;13.120;2023-03-14T15:38:03;0.50;;;0.50;;
3979;SDS011;2004;52.452;13.120;2023-03-14T15:45:53;1.63;;;0.50;;
3979;SDS011;2004;52.452;13.120;2023-03-14T15:53:45;2.50;;;0.80;;
3979;SDS011;2004;52.452;13.120;2023-03-14T16:01:36;4.00;;;0.60;;
3979;SDS011;2004;52.452;13.120;2023-03-14T16:09:26;0.40;;;0.40;;
3979;SDS011;2004;52.452;13.120;2023-03-14T16:17:17;5.60;;;0.60;;
3979;SDS011;2004;52.452;13.120;2023-03-14T16:25:07;0.60;;;0.50;;
3979;SDS011;2004;52.452;13.120;2023-03-14T16:32:58;0.60;;;0.60;;
3979;SDS011;2004;52.452;13.120;2023-03-14T16:41:04;1.87;;;0.73;;
3979;SDS011;2004;52.452;13.120;2023-03-14T16:49:01;3.30;;;1.00;;
3979;SDS011;2004;52.452;13.120;2023-03-14T16:56:52;5.67;;;1.43;;
3979;SDS011;2004;52.452;13.120;2023-03-14T17:04:43;4.03;;;1.55;;
3979;SDS011;2004;52.452;13.120;2023-03-14T17:12:33;2.33;;;1.70;;
3979;SDS011;2004;52.452;13.120;2023-03-14T17:20:24;3.07;;;2.43;;
3979;SDS011;2004;52.452;13.120;2023-03-14T17:28:15;2.80;;;1.50;;
3979;SDS011;2004;52.452;13.120;2023-03-14T17:36:07;7.13;;;1.37;;
3979;SDS011;2004;52.452;13.120;2023-03-14T17:43:58;2.97;;;1.17;;
3979;SDS011;2004;52.452;13.120;2023-03-14T17:51:49;6.03;;;1.27;;
3979;SDS011;2004;52.452;13.120;2023-03-14T17:59:39;2.10;;;1.17;;
3979;SDS011;2004;52.452;13.120;2023-03-14T18:07:35;10.10;;;1.40;;
3979;SDS011;2004;52.452;13.120;2023-03-14T18:15:26;9.20;;;1.20;;
3979;SDS011;2004;52.452;13.120;2023-03-14T18:23:17;10.33;;;1.77;;
3979;SDS011;2004;52.452;13.120;2023-03-14T18:31:09;6.10;;;1.90;;
3979;SDS011;2004;52.452;13.120;2023-03-14T18:39:01;6.93;;;2.10;;
3979;SDS011;2004;52.452;13.120;2023-03-14T18:46:55;4.90;;;1.20;;
3979;SDS011;2004;52.452;13.120;2023-03-14T18:54:46;11.40;;;1.77;;
3979;SDS011;2004;52.452;13.120;2023-03-14T19:02:36;7.23;;;2.10;;
3979;SDS011;2004;52.452;13.120;2023-03-14T19:10:27;12.30;;;2.50;;
3979;SDS011;2004;52.452;13.120;2023-03-14T19:18:17;16.47;;;1.97;;
3979;SDS011;2004;52.452;13.120;2023-03-14T19:26:08;13.73;;;2.13;;
3979;SDS011;2004;52.452;13.120;2023-03-14T19:33:58;9.50;;;2.27;;
3979;SDS011;2004;52.452;13.120;2023-03-14T19:41:49;12.20;;;1.90;;
3979;SDS011;2004;52.452;13.120;2023-03-14T19:49:46;17.67;;;2.33;;
3979;SDS011;2004;52.452;13.120;2023-03-14T19:57:38;8.17;;;1.83;;
3979;SDS011;2004;52.452;13.120;2023-03-14T20:05:29;17.67;;;3.00;;
3979;SDS011;2004;52.452;13.120;2023-03-14T20:13:19;4.87;;;0.93;;
3979;SDS011;2004;52.452;13.120;2023-03-14T20:21:10;14.40;;;1.80;;
3979;SDS011;2004;52.452;13.120;2023-03-14T20:29:02;3.23;;;1.33;;
3979;SDS011;2004;52.452;13.120;2023-03-14T20:36:55;8.90;;;1.97;;
3979;SDS011;2004;52.452;13.120;2023-03-14T20:44:46;10.43;;;2.10;;
3979;SDS011;2004;52.452;13.120;2023-03-14T20:52:36;12.07;;;2.03;;
3979;SDS011;2004;52.452;13.120;2023-03-14T21:00:27;5.70;;;1.70;;
3979;SDS011;2004;52.452;13.120;2023-03-14T21:08:19;4.73;;;1.60;;
3979;SDS011;2004;52.452;13.120;2023-03-14T21:16:11;13.27;;;1.83;;
3979;SDS011;2004;52.452;13.120;2023-03-14T21:24:02;6.03;;;1.30;;
3979;SDS011;2004;52.452;13.120;2023-03-14T21:31:53;4.70;;;1.23;;
3979;SDS011;2004;52.452;13.120;2023-03-14T21:39:44;8.20;;;1.60;;
3979;SDS011;2004;52.452;13.120;2023-03-14T21:47:34;7.33;;;1.93;;
3979;SDS011;2004;52.452;13.120;2023-03-14T21:55:25;19.87;;;1.80;;
3979;SDS011;2004;52.452;13.120;2023-03-14T22:03:16;10.10;;;1.73;;
3979;SDS011;2004;52.452;13.120;2023-03-14T22:11:08;8.20;;;1.50;;
3979;SDS011;2004;52.452;13.120;2023-03-14T22:18:58;5.40;;;1.17;;
3979;SDS011;2004;52.452;13.120;2023-03-14T22:26:52;7.67;;;1.70;;
3979;SDS011;2004;52.452;13.120;2023-03-14T22:34:43;15.03;;;1.60;;
3979;SDS011;2004;52.452;13.120;2023-03-14T22:42:34;8.53;;;1.97;;
3979;SDS011;2004;52.452;13.120;2023-03-14T22:50:24;7.60;;;1.47;;
3979;SDS011;2004;52.452;13.120;2023-03-14T22:58:15;9.90;;;2.40;;
3979;SDS011;2004;52.452;13.120;2023-03-14T23:06:05;17.47;;;2.07;;
3979;SDS011;2004;52.452;13.120;2023-03-14T23:13:56;13.50;;;1.67;;
3979;SDS011;2004;52.452;13.120;2023-03-14T23:21:47;16.43;;;1.63;;
3979;SDS011;2004;52.452;13.120;2023-03-14T23:29:38;11.90;;;1.80;;
3979;SDS011;2004;52.452;13.120;2023-03-14T23:37:29;8.50;;;1.67;;
3979;SDS011;2004;52.452;13.120;2023-03-14T23:45:20;11.17;;;2.33;;
3979;SDS011;2004;52.452;13.120;2023-03-14T23:53:12;11.00;;;2.00;;
